Time;durP1;ratioP1;P1;durP2;ratioP2;P2;SDS_P1;SDS_P2;PMS_P1;PMS_P2;Temp;Humidity;BMP_temperature;BMP_pressure;BME280_temperature;BME280_humidity;BME280_pressure;Samples;Min_cycle;Max_cycle;Signal;HPM_P1;HPM_P2
2022/10/26 00:00:52;;;;;;;13.85;8.02;;;;;;;;;;6094247;23;20448;-78
2022/10/26 00:03:18;;;;;;;12.40;7.28;;;;;;;;;;6119317;23;20017;-78
2022/10/26 00:05:45;;;;;;;10.73;6.68;;;;;;;;;;6094910;23;20049;-78
2022/10/26 00:08:11;;;;;;;17.67;7.45;;;;;;;;;;6119211;23;20103;-78
2022/10/26 00:10:37;;;;;;;11.10;7.05;;;;;;;;;;6118315;23;20026;-78
2022/10/26 00:13:04;;;;;;;10.40;7.13;;;;;;;;;;6095027;23;20018;-78
2022/10/26 00:15:31;;;;;;;12.07;6.00;;;;;;;;;;6094242;23;20067;-78
2022/10/26 00:17:57;;;;;;;13.40;7.10;;;;;;;;;;6118346;23;20340;-78
2022/10/26 00:20:23;;;;;;;15.85;7.32;;;;;;;;;;6119180;23;20017;-78
2022/10/26 00:22:49;;;;;;;8.80;6.43;;;;;;;;;;6118420;23;20073;-78
2022/10/26 00:25:16;;;;;;;10.30;7.47;;;;;;;;;;6094370;23;20069;-78
2022/10/26 00:27:42;;;;;;;13.23;7.55;;;;;;;;;;6119426;23;20029;-78
2022/10/26 00:30:09;;;;;;;11.38;7.05;;;;;;;;;;6118324;23;20021;-78
2022/10/26 00:32:35;;;;;;;11.40;7.60;;;;;;;;;;6118495;23;20070;-78
2022/10/26 00:35:01;;;;;;;11.50;7.05;;;;;;;;;;6118231;23;20392;-78
2022/10/26 00:37:27;;;;;;;8.57;6.60;;;;;;;;;;6119207;23;20010;-78
2022/10/26 00:39:53;;;;;;;10.13;7.53;;;;;;;;;;6094090;23;20073;-78
2022/10/26 00:42:20;;;;;;;10.68;7.47;;;;;;;;;;6118323;23;20021;-78
2022/10/26 00:44:46;;;;;;;12.95;7.15;;;;;;;;;;6118688;23;20022;-78
2022/10/26 00:47:19;;;;;;;12.60;7.93;;;;;;;;;;6118472;23;20341;-78
2022/10/26 00:49:47;;;;;;;11.88;6.97;;;;;;;;;;6117889;23;20506;-78
2022/10/26 00:52:14;;;;;;;13.95;9.05;;;;;;;;;;6119011;23;20022;-78
2022/10/26 00:54:40;;;;;;;13.68;7.80;;;;;;;;;;6070239;23;20049;-78
2022/10/26 00:57:06;;;;;;;12.07;7.80;;;;;;;;;;6117127;23;20086;-78
2022/10/26 00:59:32;;;;;;;10.45;7.53;;;;;;;;;;6093780;23;20044;-78
2022/10/26 01:01:58;;;;;;;13.00;7.72;;;;;;;;;;6118607;23;20125;-78
2022/10/26 01:04:25;;;;;;;9.57;6.60;;;;;;;;;;6118160;23;20018;-78
2022/10/26 01:06:51;;;;;;;13.60;7.85;;;;;;;;;;6118344;23;20524;-78
2022/10/26 01:09:18;;;;;;;13.18;6.88;;;;;;;;;;6118655;23;20363;-78
2022/10/26 01:11:44;;;;;;;9.70;6.38;;;;;;;;;;6118392;23;20100;-78
2022/10/26 01:14:12;;;;;;;10.75;7.07;;;;;;;;;;6116431;23;20022;-78
2022/10/26 01:16:41;;;;;;;10.23;6.43;;;;;;;;;;6117466;23;20386;-78
2022/10/26 01:19:26;;;;;;;16.13;8.35;;;;;;;;;;6118132;23;20020;-78
2022/10/26 01:21:52;;;;;;;11.48;6.85;;;;;;;;;;6094165;23;20022;-78
2022/10/26 01:24:23;;;;;;;11.10;7.93;;;;;;;;;;6118673;23;20072;-78
2022/10/26 01:27:08;;;;;;;12.55;6.80;;;;;;;;;;6118371;23;20024;-78
2022/10/26 01:29:46;;;;;;;12.90;7.47;;;;;;;;;;6117741;23;20014;-78
2022/10/26 01:32:24;;;;;;;10.63;7.03;;;;;;;;;;6118299;23;20018;-78
2022/10/26 01:35:02;;;;;;;9.05;5.85;;;;;;;;;;6117785;23;20014;-78
2022/10/26 01:37:30;;;;;;;10.88;7.03;;;;;;;;;;6118581;23;20018;-78
2022/10/26 01:39:59;;;;;;;11.68;7.38;;;;;;;;;;6093944;23;20029;-78
2022/10/26 01:42:25;;;;;;;16.05;7.22;;;;;;;;;;6118128;23;20018;-78
2022/10/26 01:44:53;;;;;;;12.27;6.78;;;;;;;;;;6118340;23;20056;-78
2022/10/26 01:47:20;;;;;;;14.13;6.57;;;;;;;;;;6118434;23;20397;-78
2022/10/26 01:49:49;;;;;;;15.63;8.25;;;;;;;;;;6117808;23;20078;-78
2022/10/26 01:52:15;;;;;;;9.50;6.68;;;;;;;;;;6118238;23;20106;-78
2022/10/26 01:54:41;;;;;;;10.18;7.30;;;;;;;;;;6118969;23;20010;-78
2022/10/26 01:57:08;;;;;;;10.73;7.65;;;;;;;;;;6093990;23;20290;-78
2022/10/26 01:59:54;;;;;;;9.57;6.95;;;;;;;;;;6117891;23;20018;-78
2022/10/26 02:02:37;;;;;;;10.20;7.03;;;;;;;;;;6116009;23;20014;-78
2022/10/26 02:05:22;;;;;;;11.02;6.97;;;;;;;;;;6093597;23;20018;-78
2022/10/26 02:08:07;;;;;;;13.85;7.22;;;;;;;;;;6117905;23;20096;-78
2022/10/26 02:10:33;;;;;;;10.15;6.57;;;;;;;;;;6117578;23;20165;-78
2022/10/26 02:13:07;;;;;;;9.85;6.30;;;;;;;;;;6119197;23;20070;-78
2022/10/26 02:15:53;;;;;;;9.82;6.38;;;;;;;;;;6095811;23;20010;-78
2022/10/26 02:18:19;;;;;;;14.77;8.20;;;;;;;;;;6119935;23;20014;-78
2022/10/26 02:20:48;;;;;;;9.40;6.57;;;;;;;;;;6095479;23;20178;-78
2022/10/26 02:23:15;;;;;;;10.55;6.80;;;;;;;;;;6120311;23;20026;-78
2022/10/26 02:25:44;;;;;;;12.80;6.63;;;;;;;;;;6119734;23;20018;-78
2022/10/26 02:28:12;;;;;;;11.60;7.65;;;;;;;;;;6095578;23;20101;-78
2022/10/26 02:30:39;;;;;;;11.73;6.05;;;;;;;;;;6119680;23;20096;-78
2022/10/26 02:33:07;;;;;;;11.35;7.53;;;;;;;;;;6095978;23;20014;-77
2022/10/26 02:35:35;;;;;;;12.90;6.95;;;;;;;;;;6118659;23;20010;-78
2022/10/26 02:38:03;;;;;;;9.77;7.13;;;;;;;;;;6118684;23;20037;-78
2022/10/26 02:40:30;;;;;;;15.32;7.60;;;;;;;;;;6118776;23;20121;-78
2022/10/26 02:42:59;;;;;;;10.30;7.13;;;;;;;;;;6118680;23;20029;-78
2022/10/26 02:45:33;;;;;;;9.73;7.10;;;15.00;99.90;;;;;;6118675;23;20093;-78
2022/10/26 02:47:59;;;;;;;9.82;7.45;;;;;;;;;;6118681;23;20014;-77
2022/10/26 02:50:32;;;;;;;9.93;7.45;;;11.20;99.90;;;;;;6120191;23;20052;-78
2022/10/26 02:53:06;;;;;;;10.68;8.00;;;11.20;99.90;;;;;;6120276;23;20141;-78
2022/10/26 02:55:39;;;;;;;9.32;5.88;;;11.10;99.90;;;;;;6119966;23;20440;-77
2022/10/26 02:58:15;;;;;;;10.52;7.03;;;11.10;99.90;;;;;;6119658;23;20010;-78
2022/10/26 03:00:42;;;;;;;11.77;7.65;;;;;;;;;;6119796;23;20029;-78
2022/10/26 03:03:08;;;;;;;13.60;7.10;;;;;;;;;;6070862;23;20021;-78
2022/10/26 03:05:35;;;;;;;14.68;8.00;;;;;;;;;;6119028;23;20010;-78
2022/10/26 03:08:02;;;;;;;18.23;8.80;;;;;;;;;;6049659;23;20017;-80
2022/10/26 03:10:28;;;;;;;12.88;7.25;;;;;;;;;;6073797;23;20146;-81
2022/10/26 03:12:54;;;;;;;11.23;7.45;;;;;;;;;;6122303;23;20014;-81
2022/10/26 03:15:21;;;;;;;13.48;8.07;;;;;;;;;;6097259;23;20085;-81
2022/10/26 03:17:47;;;;;;;11.13;7.75;;;;;;;;;;6120540;23;20014;-80
2022/10/26 03:20:13;;;;;;;13.70;7.00;;;;;;;;;;6119932;23;20021;-77
2022/10/26 03:22:39;;;;;;;13.63;8.48;;;;;;;;;;6118585;23;20017;-78
2022/10/26 03:25:05;;;;;;;14.13;8.73;;;;;;;;;;6119619;23;20448;-78
2022/10/26 03:27:31;;;;;;;16.23;8.68;;;;;;;;;;6095263;23;20567;-78
2022/10/26 03:29:57;;;;;;;13.77;7.95;;;;;;;;;;6120129;23;20018;-77
2022/10/26 03:32:23;;;;;;;11.88;7.90;;;;;;;;;;6119809;23;20010;-78
2022/10/26 03:34:50;;;;;;;13.82;9.15;;;;;;;;;;6119021;23;20092;-78
2022/10/26 03:37:16;;;;;;;11.88;9.02;;;;;;;;;;6119781;23;20017;-78
2022/10/26 03:39:42;;;;;;;15.85;10.63;;;;;;;;;;6120948;23;20025;-78
2022/10/26 03:42:08;;;;;;;14.60;10.25;;;;;;;;;;6120039;23;20021;-78
2022/10/26 03:44:34;;;;;;;16.90;9.50;;;;;;;;;;6120883;23;20465;-78
2022/10/26 03:47:00;;;;;;;13.65;9.63;;;;;;;;;;6121608;23;20013;-78
2022/10/26 03:49:26;;;;;;;15.85;10.13;;;;;;;;;;6122195;23;20017;-78
2022/10/26 03:51:52;;;;;;;18.25;10.68;;;;;;;;;;6097660;23;20479;-78
2022/10/26 03:54:18;;;;;;;13.27;11.25;;;;;;;;;;6073918;23;20085;-78
2022/10/26 03:56:44;;;;;;;17.33;10.98;;;;;;;;;;6122267;23;20045;-78
2022/10/26 03:59:10;;;;;;;15.68;10.25;;;;;;;;;;6121821;23;20028;-78
2022/10/26 04:01:37;;;;;;;14.70;9.95;;;;;;;;;;6097331;23;20010;-78
2022/10/26 04:04:03;;;;;;;13.80;10.35;;;;;;;;;;6122175;23;20059;-78
2022/10/26 04:06:29;;;;;;;20.80;12.45;;;;;;;;;;6121199;23;20420;-78
2022/10/26 04:09:01;;;;;;;13.57;10.45;;;;;;;;;;6096809;23;20010;-79
2022/10/26 04:11:27;;;;;;;19.20;11.55;;;;;;;;;;6095615;23;20109;-79
2022/10/26 04:13:54;;;;;;;14.98;10.70;;;;;;;;;;6120307;23;20519;-79
2022/10/26 04:16:20;;;;;;;14.35;10.95;;;;;;;;;;6096263;23;20121;-79
2022/10/26 04:18:46;;;;;;;23.50;11.48;;;;;;;;;;6096478;23;20016;-79
2022/10/26 04:21:12;;;;;;;17.65;11.55;;;;;;;;;;6095418;23;20715;-79
2022/10/26 04:23:38;;;;;;;13.23;10.93;;;;;;;;;;6093823;23;20022;-79
2022/10/26 04:26:05;;;;;;;14.45;10.48;;;;;;;;;;6121093;23;20018;-79
2022/10/26 04:28:31;;;;;;;15.73;11.45;;;;;;;;;;6120618;23;20017;-79
2022/10/26 04:30:57;;;;;;;16.52;11.15;;;;;;;;;;6073258;23;20025;-79
2022/10/26 04:33:23;;;;;;;15.07;10.73;;;;;;;;;;6073856;23;20041;-79
2022/10/26 04:35:49;;;;;;;18.35;10.68;;;;;;;;;;6097101;23;20017;-79
2022/10/26 04:38:15;;;;;;;17.42;11.38;;;;;;;;;;6097096;23;20022;-79
2022/10/26 04:40:41;;;;;;;24.30;12.27;;;;;;;;;;6122097;23;20014;-79
2022/10/26 04:43:07;;;;;;;14.15;10.18;;;;;;;;;;6073682;23;20018;-78
2022/10/26 04:45:34;;;;;;;17.33;11.52;;;;;;;;;;6121481;23;20018;-78
2022/10/26 04:48:01;;;;;;;14.25;10.65;;;;;;;;;;6119922;23;20014;-79
2022/10/26 04:50:27;;;;;;;17.48;11.00;;;;;;;;;;6120954;23;20021;-79
2022/10/26 04:52:53;;;;;;;18.60;11.98;;;;;;;;;;6120276;23;20503;-79
2022/10/26 04:55:19;;;;;;;16.30;11.00;;;;;;;;;;6096365;23;20021;-79
2022/10/26 04:57:45;;;;;;;15.35;10.77;;;;;;;;;;6097419;23;20081;-79
2022/10/26 05:00:12;;;;;;;15.50;11.85;;;;;;;;;;6121306;23;20017;-79
2022/10/26 05:02:38;;;;;;;20.05;12.40;;;;;;;;;;6121700;23;20033;-79
2022/10/26 05:05:04;;;;;;;18.25;11.88;;;;;;;;;;6122118;23;20018;-79
2022/10/26 05:07:30;;;;;;;15.00;10.45;;;;;;;;;;6097209;23;20025;-79
2022/10/26 05:09:56;;;;;;;19.63;12.63;;;;;;;;;;6120211;23;20017;-79
2022/10/26 05:12:22;;;;;;;20.60;10.70;;;;;;;;;;6096085;23;20331;-79
2022/10/26 05:14:48;;;;;;;14.75;11.32;;;;;;;;;;6120284;23;20014;-79
2022/10/26 05:17:15;;;;;;;15.43;11.73;;;;;;;;;;6118036;23;20009;-79
2022/10/26 05:19:41;;;;;;;16.08;11.13;;;;;;;;;;6118326;23;20072;-79
2022/10/26 05:22:07;;;;;;;19.33;12.40;;;;;;;;;;6071122;23;20124;-80
2022/10/26 05:24:33;;;;;;;18.45;11.23;;;;;;;;;;6094718;23;20499;-79
2022/10/26 05:27:00;;;;;;;16.50;12.02;;;;;;;;;;6095816;23;20050;-79
2022/10/26 05:29:26;;;;;;;12.40;10.18;;;;;;;;;;6095998;23;20048;-78
2022/10/26 05:31:52;;;;;;;15.60;11.05;;;;;;;;;;6119438;23;20014;-78
2022/10/26 05:34:18;;;;;;;14.98;11.73;;;;;;;;;;6071881;23;20345;-78
2022/10/26 05:36:44;;;;;;;20.58;11.65;;;;;;;;;;6119398;23;20024;-77
2022/10/26 05:39:10;;;;;;;21.77;11.40;;;;;;;;;;6119855;23;20086;-77
2022/10/26 05:41:36;;;;;;;18.55;10.88;;;;;;;;;;6118860;23;20021;-77
2022/10/26 05:44:02;;;;;;;17.13;10.88;;;;;;;;;;6119908;23;20413;-77
2022/10/26 05:46:28;;;;;;;24.50;11.90;;;;;;;;;;6095269;23;20020;-77
2022/10/26 05:48:54;;;;;;;14.98;10.77;;;;;;;;;;6121551;23;20021;-78
2022/10/26 05:51:20;;;;;;;19.13;11.63;;;;;;;;;;6122422;23;20050;-77
2022/10/26 05:53:47;;;;;;;15.35;10.88;;;;;;;;;;6121447;23;20029;-78
2022/10/26 05:56:17;;;;;;;11.73;9.40;;;;;;;;;;6072229;23;20010;-79
2022/10/26 05:58:43;;;;;;;17.27;12.15;;;;;;;;;;6121090;23;20092;-79
2022/10/26 06:01:10;;;;;;;16.15;11.27;;;;;;;;;;6122419;23;20025;-79
2022/10/26 06:03:55;;;;;;;19.83;11.80;;;;;;;;;;6122956;23;20117;-79
2022/10/26 06:06:21;;;;;;;20.10;12.57;;;;;;;;;;6122869;23;20104;-79
2022/10/26 06:08:48;;;;;;;17.90;11.00;;;;;;;;;;6122612;23;20029;-79
2022/10/26 06:11:14;;;;;;;16.30;10.68;;;;;;;;;;6122282;23;20021;-82
2022/10/26 06:13:40;;;;;;;17.27;10.77;;;;;;;;;;6123523;23;20093;-82
2022/10/26 06:16:28;;;;;;;19.10;11.70;;;;;;;;;;6097545;23;20014;-78
2022/10/26 06:19:13;;;;;;;16.45;12.48;;;;;;;;;;6121283;23;20085;-79
2022/10/26 06:21:46;;;;;;;14.73;9.82;;;;;;;;;;6094942;23;20451;-78
2022/10/26 06:24:16;;;;;;;16.42;10.38;;;;;;;;;;6120483;23;20026;-78
2022/10/26 06:26:48;;;;;;;15.00;10.07;;;;;;;;;;6121963;23;20016;-78
2022/10/26 06:29:24;;;;;;;15.98;9.98;;;;;;;;;;6121837;23;20097;-78
2022/10/26 06:31:50;;;;;;;22.83;11.50;;;;;;;;;;6119111;23;20246;-78
2022/10/26 06:34:28;;;;;;;16.33;10.73;;;;;;;;;;6118854;23;20014;-78
2022/10/26 06:36:57;;;;;;;16.05;10.10;;;;;;;;;;6119425;23;20326;-78
2022/10/26 06:39:25;;;;;;;16.90;10.85;;;;;;;;;;6119805;23;20457;-78
2022/10/26 06:41:51;;;;;;;14.35;11.00;;;;;;;;;;6119471;23;20021;-78
2022/10/26 06:44:22;;;;;;;16.02;10.00;;;;;;;;;;6069987;23;20010;-78
2022/10/26 06:46:59;;;;;;;16.83;10.32;;;;;;;;;;6119354;23;20393;-78
2022/10/26 06:49:31;;;;;;;13.45;9.55;;;;;;;;;;6119111;23;20014;-78
2022/10/26 06:52:12;;;;;;;15.35;10.23;;;;;;;;;;6118375;23;20468;-77
2022/10/26 06:54:38;;;;;;;14.85;9.93;;;;;;;;;;6118812;23;20014;-76
2022/10/26 06:57:07;;;;;;;15.23;9.75;;;;;;;;;;6093697;23;20081;-77
2022/10/26 06:59:42;;;;;;;17.35;9.50;;;;;;;;;;6117819;23;20022;-78
2022/10/26 07:02:09;;;;;;;17.73;10.32;;;;;;;;;;6118757;23;20082;-78
2022/10/26 07:04:35;;;;;;;23.15;10.60;;;;;;;;;;6119639;23;20050;-78
2022/10/26 07:07:01;;;;;;;15.75;11.05;;;;;;;;;;6096963;23;20014;-78
2022/10/26 07:09:28;;;;;;;24.08;10.68;;;;;;;;;;6121875;23;20045;-78
2022/10/26 07:11:54;;;;;;;21.90;11.38;;;;;;;;;;6097256;23;20014;-78
2022/10/26 07:14:20;;;;;;;14.40;10.30;;;;;;;;;;6121404;23;20021;-78
2022/10/26 07:16:46;;;;;;;16.27;11.77;;;;;;;;;;6119877;23;20627;-78
2022/10/26 07:19:12;;;;;;;15.57;10.27;;;;;;;;;;6094862;23;20041;-78
2022/10/26 07:21:38;;;;;;;19.42;10.23;;;;;;;;;;6094904;23;20014;-78
2022/10/26 07:24:04;;;;;;;22.45;11.02;;;;;;;;;;6118603;23;20022;-78
2022/10/26 07:26:30;;;;;;;17.27;10.82;;;;;;;;;;6119374;23;20018;-78
2022/10/26 07:28:56;;;;;;;17.42;9.82;;;;;;;;;;6118374;23;20432;-78
2022/10/26 07:31:22;;;;;;;16.92;9.18;;;;;;;;;;6117451;23;20117;-78
2022/10/26 07:33:49;;;;;;;14.95;9.98;;;;;;;;;;6117948;23;20014;-78
2022/10/26 07:36:15;;;;;;;14.63;8.05;;;;;;;;;;6118898;23;20477;-78
2022/10/26 07:38:41;;;;;;;16.38;9.40;;;;;;;;;;6094581;23;20014;-78
2022/10/26 07:41:07;;;;;;;17.13;8.90;;;;;;;;;;6118883;23;20018;-78
2022/10/26 07:43:33;;;;;;;13.55;8.73;;;;;;;;;;6094531;23;20357;-78
2022/10/26 07:45:59;;;;;;;12.20;8.60;;;;;;;;;;6094434;23;20017;-78
2022/10/26 07:48:25;;;;;;;13.60;9.40;;;;;;;;;;6118442;23;20053;-78
2022/10/26 07:50:52;;;;;;;12.23;8.73;;;;;;;;;;6118907;23;20123;-78
2022/10/26 07:53:18;;;;;;;13.80;8.02;;;;;;;;;;6070237;23;20029;-78
2022/10/26 07:55:51;;;;;;;17.45;9.90;;;;;;;;;;6118575;23;20020;-78
2022/10/26 07:58:22;;;;;;;13.50;8.35;;;;;;;;;;6117852;23;20021;-78
2022/10/26 08:00:48;;;;;;;11.60;7.80;;;;;;;;;;6118389;23;20069;-78
2022/10/26 08:03:14;;;;;;;13.43;8.38;;;;;;;;;;6118435;23;20223;-78
2022/10/26 08:05:40;;;;;;;14.18;7.93;;;;;;;;;;6118237;23;20018;-78
2022/10/26 08:08:06;;;;;;;12.27;7.75;;;;;;;;;;6095123;23;20482;-78
2022/10/26 08:10:33;;;;;;;11.73;7.60;;;;;;;;;;6117629;23;20018;-78
2022/10/26 08:12:59;;;;;;;16.27;7.63;;;;;;;;;;6118327;23;20448;-78
2022/10/26 08:15:25;;;;;;;13.80;7.60;;;;;;;;;;6118945;23;20321;-78
2022/10/26 08:17:51;;;;;;;11.80;8.13;;;;;;;;;;6117982;23;20085;-78
2022/10/26 08:20:17;;;;;;;7.82;5.80;;;;;;;;;;6117847;23;20029;-78
2022/10/26 08:22:44;;;;;;;9.05;6.53;;;;;;;;;;6093667;23;20026;-77
2022/10/26 08:25:10;;;;;;;10.07;6.20;;;;;;;;;;6118533;23;20021;-77
2022/10/26 08:27:36;;;;;;;11.68;6.35;;;;;;;;;;6118127;23;20317;-77
2022/10/26 08:30:02;;;;;;;11.85;6.93;;;;;;;;;;6117193;23;20014;-77
2022/10/26 08:32:28;;;;;;;14.98;7.22;;;;;;;;;;6117182;23;20014;-77
2022/10/26 08:34:54;;;;;;;12.52;6.30;;;;;;;;;;6117609;23;20341;-77
2022/10/26 08:37:21;;;;;;;9.07;6.35;;;;;;;;;;6118182;23;20009;-77
2022/10/26 08:39:47;;;;;;;7.85;6.03;;;;;;;;;;6117074;23;20033;-77
2022/10/26 08:42:16;;;;;;;10.98;5.65;;;;;;;;;;6119101;23;20018;-77
2022/10/26 08:44:47;;;;;;;12.40;6.13;;;;;;;;;;6118794;23;20072;-77
2022/10/26 08:47:20;;;;;;;8.77;5.10;;;;;;;;;;6119986;23;20014;-77
2022/10/26 08:50:22;;;;;;;10.82;5.82;;;;;;;;;;6119912;23;20050;-77
2022/10/26 08:53:01;;;;;;;10.48;5.95;;;;;;;;;;6008011;23;20027;-77
2022/10/26 08:55:32;;;;;;;7.43;5.65;;;;;;;;;;6106809;23;20515;-77
2022/10/26 08:58:00;;;;;;;9.50;6.60;;;;;;;;;;6118951;23;20366;-77
2022/10/26 09:00:29;;;;;;;9.43;5.68;;;;;;;;;;6117846;23;20463;-77
2022/10/26 09:02:55;;;;;;;8.52;6.25;;;;;;;;;;6117745;23;20033;-76
2022/10/26 09:05:29;;;;;;;8.82;5.38;;;;;;;;;;6117856;23;20347;-76
2022/10/26 09:08:04;;;;;;;9.00;5.72;;;;;;;;;;6118356;23;20025;-75
2022/10/26 09:10:37;;;;;;;10.38;5.55;;;;;;;;;;6117732;23;20153;-76
2022/10/26 09:13:03;;;;;;;;;;;;;;;;;;6118492;23;20464;-76
2022/10/26 09:15:39;;;;;;;11.63;4.88;;;;;;;;;;6093869;23;19913;-76
2022/10/26 09:18:08;;;;;;;8.85;6.22;;;;;;;;;;6118689;23;20018;-76
2022/10/26 09:20:34;;;;;;;19.55;6.25;;;;;;;;;;6118529;23;20107;-76
2022/10/26 09:23:06;;;;;;;10.73;5.60;;;;;;;;;;6093210;23;20033;-76
2022/10/26 09:25:38;;;;;;;12.05;4.70;;;;;;;;;;6117775;23;20421;-76
2022/10/26 09:28:07;;;;;;;8.77;5.13;;;11.00;99.90;;;;;;6094410;23;20025;-76
2022/10/26 09:30:34;;;;;;;8.27;4.85;;;14.30;99.90;;;;;;6117172;23;20022;-76
2022/10/26 09:33:13;;;;;;;7.78;4.93;;;14.30;99.90;;;;;;6117580;23;20143;-76
2022/10/26 09:35:45;;;;;;;14.30;5.43;;;14.40;99.90;;;;;;6117965;23;20048;-76
2022/10/26 09:38:25;;;;;;;8.50;4.75;;;14.50;99.90;;;;;;6093366;23;20426;-76
2022/10/26 09:41:30;;;;;;;9.20;5.03;;;14.50;99.90;;;;;;6118180;23;20018;-76
2022/10/26 09:44:01;;;;;;;7.63;4.57;;;14.60;99.90;;;;;;6118009;23;20021;-76
2022/10/26 09:46:42;;;;;;;7.05;5.22;;;14.70;99.90;;;;;;6118172;23;20476;-76
2022/10/26 09:49:11;;;;;;;11.00;5.45;;;14.70;99.90;;;;;;6116971;23;20018;-76
2022/10/26 09:51:38;;;;;;;8.02;5.45;;;;;;;;;;6093686;23;20084;-76
2022/10/26 09:54:13;;;;;;;8.50;4.97;;;;;;;;;;6117061;23;20143;-76
2022/10/26 09:56:39;;;;;;;9.38;5.25;;;;;;;;;;6118704;23;20353;-76
2022/10/26 09:59:06;;;;;;;7.10;4.53;;;;;;;;;;6119270;23;20028;-76
2022/10/26 10:01:35;;;;;;;5.45;4.60;;;;;;;;;;6118217;23;20045;-76
2022/10/26 10:04:19;;;;;;;8.35;4.50;;;;;;;;;;6116068;23;20021;-76
2022/10/26 10:06:46;;;;;;;7.38;4.53;;;;;;;;;;6094450;23;20017;-75
2022/10/26 10:09:13;;;;;;;8.05;4.82;;;;;;;;;;6119302;23;20018;-76
2022/10/26 10:11:53;;;;;;;7.20;3.72;;;;;;;;;;6117145;23;20068;-76
2022/10/26 10:14:20;;;;;;;7.70;4.28;;;;;;;;;;6093532;23;20408;-76
2022/10/26 10:17:00;;;;;;;7.22;3.47;;;;;;;;;;6117362;23;20013;-76
2022/10/26 10:19:26;;;;;;;8.55;4.45;;;;;;;;;;6117378;23;20603;-76
2022/10/26 10:22:11;;;;;;;8.70;3.70;;;;;;;;;;6118062;23;20392;-76
2022/10/26 10:24:39;;;;;;;7.85;3.40;;;;;;;;;;6117591;23;20025;-76
2022/10/26 10:27:14;;;;;;;5.97;4.18;;;;;;;;;;6093462;23;20507;-76
2022/10/26 10:29:42;;;;;;;5.88;3.53;;;;;;;;;;6118744;23;20446;-76
2022/10/26 10:32:13;;;;;;;7.22;3.92;;;;;;;;;;6118065;23;20451;-76
2022/10/26 10:34:39;;;;;;;5.80;3.67;;;;;;;;;;6118259;23;20010;-75
2022/10/26 10:37:06;;;;;;;7.57;3.60;;;;;;;;;;6094039;23;20467;-76
2022/10/26 10:39:37;;;;;;;6.53;4.22;;;;;;;;;;6117954;23;20010;-76
2022/10/26 10:42:13;;;;;;;9.55;4.05;;;;;;;;;;6117596;23;20014;-76
2022/10/26 10:44:39;;;;;;;4.90;3.80;;;;;;;;;;6093472;23;20021;-76
2022/10/26 10:47:06;;;;;;;7.65;4.00;;;;;;;;;;6117829;23;20076;-76
2022/10/26 10:49:33;;;;;;;6.45;3.85;;;;;;;;;;6118454;23;20026;-75
2022/10/26 10:51:59;;;;;;;5.00;3.40;;;;;;;;;;6118172;23;20010;-76
2022/10/26 10:54:33;;;;;;;8.95;3.97;;;;;;;;;;6117605;23;20414;-76
2022/10/26 10:57:25;;;;;;;8.23;3.70;;;;;;;;;;6118495;23;20006;-76
2022/10/26 11:00:03;;;;;;;9.47;3.27;;;;;;;;;;6118066;23;20021;-77
2022/10/26 11:02:38;;;;;;;9.00;3.65;;;;;;;;;;6118354;23;20333;-77
2022/10/26 11:05:19;;;;;;;6.30;2.83;;;;;;;;;;6118697;23;20341;-77
2022/10/26 11:07:50;;;;;;;4.63;3.08;;;;;;;;;;6117105;23;20097;-78
2022/10/26 11:10:18;;;;;;;10.45;4.30;;;;;;;;;;6118333;23;20018;-78
2022/10/26 11:12:46;;;;;;;8.25;3.60;;;;;;;;;;6069145;23;20088;-77
2022/10/26 11:15:21;;;;;;;6.80;3.35;;;;;;;;;;6118861;23;20484;-77
2022/10/26 11:17:55;;;;;;;7.88;3.53;;;;;;;;;;6117550;23;20364;-78
2022/10/26 11:20:24;;;;;;;6.60;4.25;;;;;;;;;;6116942;23;20014;-78
2022/10/26 11:22:54;;;;;;;4.63;2.78;;;;;;;;;;6094211;23;20018;-78
2022/10/26 11:25:27;;;;;;;5.13;3.33;;;14.80;99.90;;;;;;6093985;23;20017;-77
2022/10/26 11:27:55;;;;;;;6.43;3.42;;;;;;;;;;6118415;23;20456;-77
2022/10/26 11:30:24;;;;;;;10.30;4.75;;;;;;;;;;6093722;23;20359;-78
2022/10/26 11:32:50;;;;;;;8.52;3.95;;;;;;;;;;6118199;23;20020;-77
2022/10/26 11:35:19;;;;;;;8.70;3.65;;;;;;;;;;6118190;23;20018;-77
2022/10/26 11:37:51;;;;;;;7.25;3.53;;;;;;;;;;6118535;23;20014;-77
2022/10/26 11:40:17;;;;;;;;;;;;;;;;;;6118865;23;20345;-78
2022/10/26 11:42:54;;;;;;;9.98;3.85;;;;;;;;;;6117870;23;19913;-77
2022/10/26 11:45:39;;;;;;;5.25;3.20;;;;;;;;;;6117266;23;20321;-77
2022/10/26 11:48:30;;;;;;;7.10;3.92;;;16.80;99.90;;;;;;6117447;23;20018;-78
2022/10/26 11:50:58;;;;;;;11.45;3.78;;;17.20;99.90;;;;;;6094029;23;20052;-77
2022/10/26 11:53:29;;;;;;;7.80;3.70;;;17.20;99.90;;;;;;6117350;23;20020;-77
2022/10/26 11:55:56;;;;;;;7.80;4.80;;;17.20;99.90;;;;;;6117853;23;20071;-78
2022/10/26 11:58:27;;;;;;;6.68;3.83;;;17.20;99.90;;;;;;6117253;23;20360;-77
2022/10/26 12:00:59;;;;;;;8.48;4.03;;;17.20;99.90;;;;;;6093035;23;20022;-77
2022/10/26 12:03:27;;;;;;;6.10;3.63;;;;;;;;;;6093370;23;20021;-77
2022/10/26 12:05:53;;;;;;;8.27;3.85;;;;;;;;;;6118725;23;20250;-77
2022/10/26 12:08:38;;;;;;;9.27;4.22;;;;;;;;;;6094282;23;20028;-78
2022/10/26 12:11:07;;;;;;;10.65;4.80;;;;;;;;;;6118614;23;20479;-78
2022/10/26 12:13:37;;;;;;;8.38;4.47;;;;;;;;;;6118119;23;20071;-78
2022/10/26 12:16:09;;;;;;;7.82;4.43;;;;;;;;;;6119081;23;20484;-77
2022/10/26 12:18:58;;;;;;;7.43;3.93;;;;;;;;;;6119049;23;20436;-77
2022/10/26 12:21:26;;;;;;;9.65;4.93;;;;;;;;;;6117469;23;20089;-76
2022/10/26 12:23:53;;;;;;;12.60;4.45;;;;;;;;;;6117154;23;20452;-76
2022/10/26 12:26:22;;;;;;;9.82;4.63;;;;;;;;;;6115826;23;20022;-76
2022/10/26 12:29:02;;;;;;;6.78;4.32;;;;;;;;;;6115882;23;20113;-76
2022/10/26 12:31:37;;;;;;;8.80;4.90;;;;;;;;;;6112602;23;20022;-76
2022/10/26 12:34:04;;;;;;;7.95;3.83;;;;;;;;;;6112759;23;20092;-76
2022/10/26 12:36:46;;;;;;;12.23;5.05;;;;;;;;;;6113018;23;20073;-76
2022/10/26 12:39:31;;;;;;;6.70;4.88;;;;;;;;;;6112466;23;20090;-76
2022/10/26 12:42:09;;;;;;;11.27;5.07;;;;;;;;;;6089523;23;20014;-76
2022/10/26 12:44:44;;;;;;;11.82;5.93;;;;;;;;;;6113860;23;20108;-76
2022/10/26 12:47:30;;;;;;;8.98;5.22;;;;;;;;;;6113324;23;20510;-76
2022/10/26 12:50:05;;;;;;;8.38;5.53;;;;;;;;;;6115135;23;20385;-77
2022/10/26 12:53:00;;;;;;;8.93;6.13;;;;;;;;;;6089264;23;20010;-77
2022/10/26 12:55:48;;;;;;;12.90;5.85;;;;;;;;;;6066889;23;20013;-77
2022/10/26 12:58:14;;;;;;;7.78;5.55;;;;;;;;;;6114181;23;20577;-76
2022/10/26 13:00:58;;;;;;;8.70;5.63;;;;;;;;;;6091067;23;20448;-76
2022/10/26 13:03:27;;;;;;;10.63;5.85;;;;;;;;;;6113632;23;20029;-76
2022/10/26 13:06:12;;;;;;;11.32;5.57;;;;;;;;;;6091976;23;20028;-76
2022/10/26 13:08:44;;;;;;;7.05;5.00;;;;;;;;;;6114766;23;20029;-76
2022/10/26 13:11:16;;;;;;;10.23;5.10;;;;;;;;;;6090278;23;20022;-76
2022/10/26 13:13:42;;;;;;;9.07;5.10;;;;;;;;;;6114493;23;20020;-76
2022/10/26 13:16:12;;;;;;;6.88;5.00;;;;;;;;;;6114952;23;20049;-77
2022/10/26 13:18:43;;;;;;;9.98;4.80;;;;;;;;;;6089715;23;20021;-76
2022/10/26 13:21:12;;;;;;;9.25;4.88;;;;;;;;;;6116109;23;20100;-77
2022/10/26 13:23:40;;;;;;;7.47;4.28;;;;;;;;;;6091861;23;20045;-77
2022/10/26 13:26:10;;;;;;;8.07;5.15;;;;;;;;;;6116451;23;20053;-77
2022/10/26 13:28:36;;;;;;;9.52;4.88;;;;;;;;;;6116002;23;20022;-77
2022/10/26 13:31:03;;;;;;;10.50;5.45;;;;;;;;;;6068123;23;20426;-77
2022/10/26 13:33:37;;;;;;;7.75;5.50;;;;;;;;;;6092058;23;20018;-77
2022/10/26 13:36:14;;;;;;;10.23;5.95;;;;;;;;;;6115015;23;20014;-77
2022/10/26 13:38:40;;;;;;;9.07;4.93;;;;;;;;;;6114810;23;20066;-77
2022/10/26 13:41:11;;;;;;;9.05;5.18;;;;;;;;;;6092624;23;20045;-77
2022/10/26 13:43:37;;;;;;;14.93;5.95;;;;;;;;;;6065917;23;20022;-77
2022/10/26 13:46:04;;;;;;;9.38;5.07;;;;;;;;;;6090793;23;20028;-77
2022/10/26 13:48:37;;;;;;;8.75;4.38;;;;;;;;;;6115178;23;20025;-77
2022/10/26 13:51:10;;;;;;;6.07;4.30;;;;;;;;;;6115398;23;20018;-77
2022/10/26 13:53:43;;;;;;;10.35;4.60;;;;;;;;;;6091141;23;20017;-77
2022/10/26 13:56:15;;;;;;;7.95;4.63;;;;;;;;;;6117056;23;20464;-77
2022/10/26 13:58:50;;;;;;;7.65;4.65;;;;;;;;;;6117515;23;20014;-77
2022/10/26 14:01:20;;;;;;;10.90;4.13;;;;;;;;;;6117733;23;20024;-77
2022/10/26 14:03:47;;;;;;;8.75;4.72;;;;;;;;;;6116742;23;20047;-77
2022/10/26 14:06:16;;;;;;;7.43;4.47;;;;;;;;;;6116990;23;20056;-76
2022/10/26 14:08:43;;;;;;;6.93;4.80;;;;;;;;;;6093959;23;20017;-76
2022/10/26 14:11:13;;;;;;;8.88;4.28;;;;;;;;;;6119232;23;20173;-76
2022/10/26 14:13:40;;;;;;;8.60;4.50;;;;;;;;;;6118571;23;20021;-76
2022/10/26 14:16:09;;;;;;;6.25;4.50;;;;;;;;;;6119104;23;20053;-76
2022/10/26 14:18:36;;;;;;;12.05;4.40;;;;;;;;;;6119222;23;20014;-76
2022/10/26 14:21:04;;;;;;;8.10;3.92;;;;;;;;;;6118928;23;20014;-76
2022/10/26 14:23:35;;;;;;;9.90;4.38;;;;;;;;;;6094063;23;20026;-76
2022/10/26 14:26:01;;;;;;;6.53;4.05;;;;;;;;;;6118967;23;20435;-76
2022/10/26 14:28:28;;;;;;;9.85;4.55;;;;;;;;;;6119830;23;20143;-76
2022/10/26 14:31:09;;;;;;;9.45;3.75;;;;;;;;;;6119836;23;20084;-76
2022/10/26 14:33:35;;;;;;;8.27;4.32;;;;;;;;;;6119535;23;20076;-75
2022/10/26 14:36:01;;;;;;;7.20;4.18;;;;;;;;;;6118473;23;20345;-76
2022/10/26 14:38:30;;;;;;;5.85;3.55;;;;;;;;;;6121090;23;20014;-76